Time;durP1;ratioP1;P1;durP2;ratioP2;P2;SDS_P1;SDS_P2;PMS_P1;PMS_P2;Temp;Humidity;BMP_temperature;BMP_pressure;BME280_temperature;BME280_humidity;BME280_pressure;Samples;Min_cycle;Max_cycle;Signal;HPM_P1;HPM_P2
2022/05/29 00:02:04;;;;;;;0.40;0.40;;;10.80;99.90;;;;;;4978746;28;20087;-73
2022/05/29 00:04:29;;;;;;;0.40;0.40;;;10.80;99.90;;;;;;4978148;28;20086;-72
2022/05/29 00:06:56;;;;;;;3.15;0.70;;;10.70;99.90;;;;;;4977966;28;20090;-73
2022/05/29 00:09:31;;;;;;;0.45;0.45;;;10.70;99.90;;;;;;4961754;28;20046;-74
2022/05/29 00:11:58;;;;;;;0.50;0.50;;;10.60;99.90;;;;;;4961156;28;20463;-74
2022/05/29 00:14:24;;;;;;;0.43;0.43;;;10.60;99.90;;;;;;4977952;28;20046;-73
2022/05/29 00:16:49;;;;;;;0.40;0.40;;;10.60;99.90;;;;;;4978408;28;20211;-72
2022/05/29 00:19:15;;;;;;;0.52;0.52;;;10.50;99.90;;;;;;4960794;28;20081;-71
2022/05/29 00:21:40;;;;;;;0.73;0.73;;;10.50;99.90;;;;;;4971776;28;20372;-73
2022/05/29 00:24:07;;;;;;;0.50;0.50;;;10.50;99.90;;;;;;4977802;28;20074;-72
2022/05/29 00:26:33;;;;;;;2.60;1.20;;;10.40;99.90;;;;;;4977170;28;20182;-73
2022/05/29 00:28:59;;;;;;;0.40;0.40;;;10.40;99.90;;;;;;4960814;28;20137;-74
2022/05/29 00:31:24;;;;;;;1.38;1.35;;;10.30;99.90;;;;;;4978426;28;20089;-74
2022/05/29 00:33:50;;;;;;;0.50;0.50;;;10.30;99.90;;;;;;4961086;28;20077;-71
2022/05/29 00:36:16;;;;;;;0.45;0.45;;;10.20;99.90;;;;;;4960955;28;20145;-72
2022/05/29 00:38:44;;;;;;;0.50;0.50;;;10.20;99.90;;;;;;4960510;28;20107;-71
2022/05/29 00:41:30;;;;;;;0.45;0.45;;;10.20;99.90;;;;;;4977310;28;20066;-72
2022/05/29 00:44:15;;;;;;;0.40;0.40;;;10.30;99.90;;;;;;4977385;28;20519;-72
2022/05/29 00:46:49;;;;;;;1.27;0.88;;;10.30;99.90;;;;;;4961176;28;20050;-73
2022/05/29 00:49:18;;;;;;;0.70;0.70;;;10.30;99.90;;;;;;4960750;28;20059;-74
2022/05/29 00:52:06;;;;;;;0.40;0.40;;;10.30;99.90;;;;;;4960064;28;20050;-71
2022/05/29 00:54:55;;;;;;;0.50;0.50;;;10.30;99.90;;;;;;4946825;28;20104;-73
2022/05/29 00:57:25;;;;;;;0.75;0.60;;;10.40;99.90;;;;;;4960342;28;20150;-73
2022/05/29 00:59:53;;;;;;;0.50;0.50;;;10.30;99.90;;;;;;4977039;28;20113;-74
2022/05/29 01:02:19;;;;;;;0.40;0.40;;;10.30;99.90;;;;;;4959909;28;20424;-72
2022/05/29 01:04:44;;;;;;;0.52;0.50;;;10.30;99.90;;;;;;4960987;28;20055;-72
2022/05/29 01:07:14;;;;;;;1.45;1.38;;;10.30;99.90;;;;;;4960385;28;20383;-73
2022/05/29 01:09:42;;;;;;;0.60;0.60;;;10.20;99.90;;;;;;4960520;28;20379;-72
2022/05/29 01:12:37;;;;;;;0.50;0.50;;;10.20;99.90;;;;;;4976987;28;20051;-73
2022/05/29 01:15:24;;;;;;;0.55;0.55;;;10.20;99.90;;;;;;4959658;28;20046;-72
2022/05/29 01:18:03;;;;;;;1.27;0.88;;;10.10;99.90;;;;;;4977034;28;20096;-73
2022/05/29 01:20:45;;;;;;;0.40;0.40;;;10.10;99.90;;;;;;4976699;28;20489;-71
2022/05/29 01:23:31;;;;;;;0.70;0.70;;;10.10;99.90;;;;;;4976440;28;20053;-72
2022/05/29 01:26:28;;;;;;;0.50;0.50;;;10.10;99.90;;;;;;4976950;28;20051;-73
2022/05/29 01:28:58;;;;;;;0.40;0.40;;;10.10;99.90;;;;;;4959622;28;20046;-73
2022/05/29 01:31:56;;;;;;;0.40;0.40;;;10.10;99.90;;;;;;4976083;28;20478;-72
2022/05/29 01:34:44;;;;;;;0.75;0.75;;;10.10;99.90;;;;;;4977242;28;20054;-73
2022/05/29 01:37:23;;;;;;;0.40;0.40;;;10.10;99.90;;;;;;4977121;28;20089;-72
2022/05/29 01:40:38;;;;;;;0.40;0.40;;;10.10;99.90;;;;;;4959664;28;20051;-73
2022/05/29 01:43:20;;;;;;;0.60;0.60;;;10.10;99.90;;;;;;4938989;28;20058;-73
2022/05/29 01:46:06;;;;;;;0.50;0.50;;;10.10;99.90;;;;;;4956921;28;20151;-72
2022/05/29 01:48:50;;;;;;;2.85;1.02;;;10.10;99.90;;;;;;4959819;28;20121;-73
2022/05/29 01:51:23;;;;;;;0.40;0.40;;;10.20;99.90;;;;;;4959210;28;20093;-73
2022/05/29 01:54:03;;;;;;;0.93;0.80;;;10.20;99.90;;;;;;4959405;28;20105;-71
2022/05/29 01:56:32;;;;;;;0.50;0.50;;;10.20;99.90;;;;;;4975740;28;20050;-72
2022/05/29 01:59:05;;;;;;;0.40;0.40;;;10.20;99.90;;;;;;4959070;28;20055;-72
2022/05/29 02:01:36;;;;;;;0.40;0.40;;;10.20;99.90;;;;;;4976519;28;20415;-73
2022/05/29 02:04:10;;;;;;;0.93;0.70;;;10.20;99.90;;;;;;4976145;28;20054;-73
2022/05/29 02:09:25;;;;;;;3.85;0.85;;;10.20;99.90;;;;;;4976115;28;20047;-72
2022/05/29 02:11:54;;;;;;;0.40;0.40;;;10.10;99.90;;;;;;4976093;28;20046;-73
2022/05/29 02:14:26;;;;;;;0.60;0.60;;;10.20;99.90;;;;;;4975829;28;20054;-73
2022/05/29 02:16:57;;;;;;;0.40;0.40;;;10.10;99.90;;;;;;4975938;28;20511;-73
2022/05/29 02:19:30;;;;;;;0.40;0.40;;;10.10;99.90;;;;;;4975487;28;20035;-73
2022/05/29 02:22:12;;;;;;;0.40;0.40;;;10.10;99.90;;;;;;4976034;28;20059;-73
2022/05/29 02:24:42;;;;;;;0.47;0.47;;;10.10;99.90;;;;;;4976046;28;20061;-71
2022/05/29 02:27:31;;;;;;;0.40;0.40;;;10.10;99.90;;;;;;4975965;28;20051;-73
2022/05/29 02:29:58;;;;;;;0.50;0.50;;;10.10;99.90;;;;;;4975455;28;20077;-74
2022/05/29 02:32:34;;;;;;;3.80;1.98;;;10.10;99.90;;;;;;4975989;28;20046;-73
2022/05/29 02:35:26;;;;;;;0.40;0.40;;;10.10;99.90;;;;;;4975914;28;20042;-74
2022/05/29 02:38:14;;;;;;;0.40;0.40;;;10.10;99.90;;;;;;4975840;28;20051;-72
2022/05/29 02:40:52;;;;;;;0.40;0.40;;;10.10;99.90;;;;;;4958581;28;20110;-72
2022/05/29 02:43:36;;;;;;;0.50;0.50;;;10.10;99.90;;;;;;4959271;28;20081;-72
2022/05/29 02:46:21;;;;;;;19.17;0.98;;;10.10;99.90;;;;;;4975626;28;20062;-72
2022/05/29 02:49:01;;;;;;;1.23;0.88;;;10.10;99.90;;;;;;4975343;28;20058;-74
2022/05/29 02:51:31;;;;;;;9.02;0.52;;;10.20;99.90;;;;;;4975615;28;20047;-73
2022/05/29 02:53:57;;;;;;;0.40;0.40;;;10.10;99.90;;;;;;4975725;28;20385;-73
2022/05/29 02:56:23;;;;;;;0.55;0.55;;;10.10;99.90;;;;;;4975496;28;20039;-73
2022/05/29 02:58:52;;;;;;;0.40;0.40;;;10.10;99.90;;;;;;4975617;28;20043;-71
2022/05/29 03:01:33;;;;;;;0.40;0.40;;;10.20;99.90;;;;;;4975556;28;20039;-72
2022/05/29 03:04:44;;;;;;;0.40;0.40;;;10.10;99.90;;;;;;4962438;28;20047;-71
2022/05/29 03:07:20;;;;;;;0.40;0.40;;;10.20;99.90;;;;;;4945923;28;20050;-73
2022/05/29 03:10:00;;;;;;;0.40;0.40;;;10.10;99.90;;;;;;4979260;28;20047;-72
2022/05/29 03:12:53;;;;;;;0.40;0.40;;;10.10;99.90;;;;;;4978906;28;20181;-72
2022/05/29 03:15:40;;;;;;;0.40;0.40;;;10.10;99.90;;;;;;4979098;28;20043;-73
2022/05/29 03:18:39;;;;;;;0.40;0.40;;;10.10;99.90;;;;;;4979098;28;20046;-71
2022/05/29 03:21:23;;;;;;;0.60;0.60;;;10.10;99.90;;;;;;4978846;28;20046;-72
2022/05/29 03:24:02;;;;;;;0.55;0.45;;;10.10;99.90;;;;;;4978889;28;20053;-73
2022/05/29 03:26:51;;;;;;;0.85;0.80;;;10.10;99.90;;;;;;4978906;28;20399;-73
2022/05/29 03:29:23;;;;;;;0.50;0.50;;;10.10;99.90;;;;;;4978782;28;20070;-73
2022/05/29 03:31:49;;;;;;;0.65;0.65;;;10.10;99.90;;;;;;4978563;28;20058;-72
2022/05/29 03:34:15;;;;;;;0.68;0.68;;;10.20;99.90;;;;;;4978422;28;20057;-73
2022/05/29 03:36:49;;;;;;;0.40;0.40;;;10.10;99.90;;;;;;4978576;28;20117;-73
2022/05/29 03:39:14;;;;;;;3.10;1.30;;;10.20;99.90;;;;;;4979013;28;20379;-72
2022/05/29 03:41:45;;;;;;;0.40;0.40;;;10.20;99.90;;;;;;4978779;28;20039;-72
2022/05/29 03:44:12;;;;;;;0.77;0.77;;;10.20;99.90;;;;;;4978425;28;20039;-72
2022/05/29 03:46:42;;;;;;;0.55;0.55;;;10.20;99.90;;;;;;4978284;28;20083;-73
2022/05/29 03:49:09;;;;;;;0.40;0.40;;;10.20;99.90;;;;;;4961598;28;20059;-71
2022/05/29 03:51:35;;;;;;;0.50;0.50;;;10.20;99.90;;;;;;4978238;28;20039;-72
2022/05/29 03:54:02;;;;;;;0.40;0.40;;;10.20;99.90;;;;;;4958910;28;20097;-73
2022/05/29 03:56:27;;;;;;;0.73;0.50;;;10.20;99.90;;;;;;4978364;28;20121;-71
2022/05/29 03:58:53;;;;;;;0.65;0.65;;;10.20;99.90;;;;;;4961657;28;20459;-72
2022/05/29 04:01:19;;;;;;;0.40;0.40;;;10.20;99.90;;;;;;4978160;28;20046;-72
2022/05/29 04:03:44;;;;;;;0.45;0.45;;;10.30;99.90;;;;;;4978055;28;20098;-73
2022/05/29 04:06:10;;;;;;;0.40;0.40;;;10.30;99.90;;;;;;4961777;28;20455;-72
2022/05/29 04:14:06;;;;;;;0.50;0.50;;;10.30;99.90;;;;;;4976646;28;20459;-72
2022/05/29 04:16:32;;;;;;;0.43;0.43;;;10.30;99.90;;;;;;4975047;28;20090;-73
2022/05/29 04:18:57;;;;;;;0.70;0.70;;;10.30;99.90;;;;;;4960650;28;20042;-72
2022/05/29 04:21:23;;;;;;;0.50;0.50;;;10.30;99.90;;;;;;4977719;28;20484;-74
2022/05/29 04:23:49;;;;;;;0.82;0.82;;;10.20;99.90;;;;;;4977983;28;20089;-72
2022/05/29 04:26:15;;;;;;;0.40;0.40;;;10.20;99.90;;;;;;4960695;28;20051;-72
2022/05/29 04:28:42;;;;;;;0.40;0.40;;;10.30;99.90;;;;;;4977204;28;20070;-71
2022/05/29 04:31:08;;;;;;;0.40;0.40;;;10.30;99.90;;;;;;4977680;28;20122;-71
2022/05/29 04:33:35;;;;;;;0.40;0.40;;;10.30;99.90;;;;;;4977645;28;20073;-72
2022/05/29 04:36:00;;;;;;;0.40;0.40;;;10.40;99.90;;;;;;4977697;28;20059;-71
2022/05/29 04:38:29;;;;;;;0.40;0.40;;;10.40;99.90;;;;;;4977577;28;20584;-72
2022/05/29 04:40:56;;;;;;;2.65;0.82;;;10.40;99.90;;;;;;4975088;28;20482;-73
2022/05/29 04:43:22;;;;;;;0.55;0.55;;;10.40;99.90;;;;;;4943593;28;20118;-71
2022/05/29 04:45:54;;;;;;;0.50;0.50;;;10.40;99.90;;;;;;4977315;28;20113;-72
2022/05/29 04:48:19;;;;;;;0.35;0.35;;;10.40;99.90;;;;;;4977340;28;20042;-73
2022/05/29 04:50:45;;;;;;;0.70;0.70;;;10.40;99.90;;;;;;4977623;28;20102;-72
2022/05/29 04:53:11;;;;;;;0.50;0.50;;;10.40;99.90;;;;;;4977240;28;20444;-73
2022/05/29 04:55:41;;;;;;;1.65;0.88;;;10.30;99.90;;;;;;4976857;28;20051;-73
2022/05/29 04:58:07;;;;;;;0.52;0.52;;;10.30;99.90;;;;;;4960319;28;20054;-72
2022/05/29 05:00:33;;;;;;;0.50;0.50;;;10.30;99.90;;;;;;4977476;28;20062;-71
2022/05/29 05:02:59;;;;;;;0.40;0.40;;;10.40;99.90;;;;;;4943598;28;20059;-74
2022/05/29 05:05:25;;;;;;;0.40;0.40;;;10.30;99.90;;;;;;4976931;28;20062;-72
2022/05/29 05:07:51;;;;;;;0.60;0.60;;;10.30;99.90;;;;;;4976815;28;20042;-71
2022/05/29 05:10:17;;;;;;;0.40;0.40;;;10.30;99.90;;;;;;4976748;28;20088;-73
2022/05/29 05:12:43;;;;;;;0.43;0.43;;;10.30;99.90;;;;;;4976851;28;20094;-73
2022/05/29 05:15:11;;;;;;;1.10;1.10;;;10.40;99.90;;;;;;4976884;28;20046;-72
2022/05/29 05:17:37;;;;;;;0.50;0.50;;;10.40;99.90;;;;;;4976761;28;20046;-72
2022/05/29 05:20:04;;;;;;;0.47;0.47;;;10.50;99.90;;;;;;4960075;28;20042;-72
2022/05/29 05:22:30;;;;;;;0.40;0.40;;;10.50;99.90;;;;;;4960075;28;20122;-73
2022/05/29 05:24:55;;;;;;;0.40;0.40;;;10.50;99.90;;;;;;4976495;28;20138;-72
2022/05/29 05:27:21;;;;;;;0.45;0.45;;;10.60;99.90;;;;;;4977174;28;20058;-73
2022/05/29 05:29:47;;;;;;;0.50;0.50;;;10.70;99.90;;;;;;4959377;28;20058;-71
2022/05/29 05:32:13;;;;;;;0.50;0.50;;;10.70;99.90;;;;;;4959541;28;20055;-72
2022/05/29 05:34:40;;;;;;;0.45;0.45;;;10.70;99.90;;;;;;4959478;28;20046;-71
2022/05/29 05:37:06;;;;;;;0.40;0.40;;;10.70;99.90;;;;;;4976433;28;20475;-72
2022/05/29 05:39:32;;;;;;;1.55;1.25;;;10.80;99.90;;;;;;4959337;28;20082;-74
2022/05/29 05:41:58;;;;;;;0.50;0.50;;;10.80;99.90;;;;;;4959861;28;20043;-72
2022/05/29 05:44:23;;;;;;;6.32;0.52;;;10.80;99.90;;;;;;4959951;28;20452;-72
2022/05/29 05:46:55;;;;;;;0.50;0.50;;;10.80;99.90;;;;;;4926786;28;20094;-71
2022/05/29 05:49:21;;;;;;;0.40;0.40;;;10.80;99.90;;;;;;4976329;28;20055;-73
2022/05/29 05:51:48;;;;;;;0.40;0.40;;;10.80;99.90;;;;;;4976079;28;20066;-72
2022/05/29 05:54:14;;;;;;;0.40;0.40;;;10.80;99.90;;;;;;4975905;28;20042;-72
2022/05/29 05:56:47;;;;;;;1.23;1.20;;;10.80;99.90;;;;;;4976106;28;20048;-73
2022/05/29 05:59:14;;;;;;;;;;;10.80;99.90;;;;;;4959982;28;20050;-73
2022/05/29 06:01:40;;;;;;;0.40;0.40;;;10.70;99.90;;;;;;4959632;28;19933;-72
2022/05/29 06:04:06;;;;;;;0.80;0.80;;;10.60;99.90;;;;;;4976102;28;20118;-72
2022/05/29 06:06:32;;;;;;;0.47;0.47;;;10.60;99.90;;;;;;4959181;28;20062;-72
2022/05/29 06:08:58;;;;;;;0.40;0.40;;;10.50;99.90;;;;;;4958910;28;20042;-71
2022/05/29 06:11:25;;;;;;;0.93;0.93;;;10.50;99.90;;;;;;4976428;28;20038;-72
2022/05/29 06:13:50;;;;;;;0.60;0.60;;;10.50;99.90;;;;;;4959013;28;20058;-72
2022/05/29 06:16:16;;;;;;;0.43;0.43;;;10.70;99.90;;;;;;4959118;28;20061;-72
2022/05/29 06:18:41;;;;;;;0.40;0.40;;;10.80;99.90;;;;;;4959087;28;20431;-73
2022/05/29 06:21:07;;;;;;;0.50;0.50;;;10.90;99.90;;;;;;4958698;28;20065;-72
2022/05/29 06:23:34;;;;;;;7.03;0.85;;;11.00;99.90;;;;;;4958779;28;20129;-73
2022/05/29 06:26:02;;;;;;;0.40;0.40;;;11.10;99.90;;;;;;4975799;28;20073;-73
2022/05/29 06:28:28;;;;;;;0.50;0.50;;;11.20;99.90;;;;;;4975828;28;20046;-72
2022/05/29 06:30:54;;;;;;;0.75;0.65;;;11.30;99.90;;;;;;4975780;28;20071;-73
2022/05/29 06:33:19;;;;;;;0.40;0.40;;;11.30;99.90;;;;;;4959051;28;20055;-72
2022/05/29 06:35:45;;;;;;;0.52;0.52;;;11.40;99.90;;;;;;4958588;28;20073;-73
2022/05/29 06:38:10;;;;;;;0.55;0.55;;;11.40;99.90;;;;;;4977879;28;20450;-72
2022/05/29 06:40:39;;;;;;;0.40;0.40;;;11.50;99.90;;;;;;4980142;28;20494;-71
2022/05/29 06:43:05;;;;;;;0.70;0.70;;;11.50;99.90;;;;;;4979610;28;20102;-72
2022/05/29 06:45:30;;;;;;;0.40;0.40;;;11.60;99.90;;;;;;4979554;28;20050;-73
2022/05/29 06:47:56;;;;;;;2.20;0.95;;;11.70;99.90;;;;;;4979480;28;20053;-72
2022/05/29 06:50:21;;;;;;;0.63;0.63;;;11.80;99.90;;;;;;4962703;28;20073;-74
2022/05/29 06:52:48;;;;;;;1.45;0.77;;;11.80;99.90;;;;;;4979393;28;20069;-73
2022/05/29 06:55:15;;;;;;;0.50;0.50;;;11.90;99.90;;;;;;4943352;28;20059;-72
2022/05/29 06:57:41;;;;;;;0.40;0.40;;;11.90;99.90;;;;;;4962745;28;20074;-73
2022/05/29 07:08:30;;;;;;;0.47;0.47;;;12.00;99.90;;;;;;4962256;28;20054;-73
2022/05/29 07:11:09;;;;;;;0.40;0.40;;;11.90;99.90;;;;;;4962265;28;20082;-73
2022/05/29 07:13:36;;;;;;;0.40;0.40;;;11.80;99.90;;;;;;4978952;28;20042;-73
2022/05/29 07:16:01;;;;;;;1.17;1.10;;;11.80;99.90;;;;;;4978983;28;20050;-73
2022/05/29 07:18:29;;;;;;;0.30;0.30;;;11.70;99.90;;;;;;4979080;28;20050;-72
2022/05/29 07:20:57;;;;;;;0.40;0.40;;;11.60;99.90;;;;;;4978885;28;20065;-73
2022/05/29 07:23:23;;;;;;;0.45;0.45;;;11.60;99.90;;;;;;4976658;28;20129;-72
2022/05/29 07:25:48;;;;;;;0.40;0.40;;;11.50;99.90;;;;;;4978642;28;20047;-72
2022/05/29 07:28:14;;;;;;;0.40;0.40;;;11.70;99.90;;;;;;4978541;28;20058;-72
2022/05/29 07:30:40;;;;;;;0.65;0.47;;;11.70;99.90;;;;;;4962327;28;20195;-72
2022/05/29 07:33:05;;;;;;;0.75;0.75;;;11.60;99.90;;;;;;4962326;28;20062;-73
2022/05/29 07:35:31;;;;;;;0.40;0.40;;;11.60;99.90;;;;;;4978117;28;20135;-72
2022/05/29 07:37:57;;;;;;;0.43;0.43;;;11.50;99.90;;;;;;4961896;28;20051;-74
2022/05/29 07:40:23;;;;;;;0.55;0.50;;;11.40;99.90;;;;;;4978751;28;20043;-72
2022/05/29 07:45:33;;;;;;;0.35;0.35;;;11.30;99.90;;;;;;4977985;28;20062;-73
2022/05/29 07:48:00;;;;;;;0.40;0.40;;;11.30;99.90;;;;;;4961896;28;20046;-74
2022/05/29 07:50:26;;;;;;;2.85;0.70;;;11.30;99.90;;;;;;4960371;28;20058;-74
2022/05/29 07:52:52;;;;;;;0.40;0.40;;;11.40;99.90;;;;;;4961241;28;20066;-73
2022/05/29 07:55:18;;;;;;;0.40;0.40;;;11.40;99.90;;;;;;4977945;28;20125;-72
2022/05/29 07:57:46;;;;;;;0.50;0.50;;;11.50;99.90;;;;;;4978245;28;20062;-74
2022/05/29 08:00:14;;;;;;;0.40;0.40;;;11.60;99.90;;;;;;4978665;28;20061;-72
2022/05/29 08:02:40;;;;;;;0.40;0.40;;;11.70;99.90;;;;;;4978275;28;20138;-72
2022/05/29 08:05:07;;;;;;;1.50;0.88;;;12.00;99.90;;;;;;4978258;28;20125;-71
2022/05/29 08:07:33;;;;;;;0.40;0.40;;;12.00;99.90;;;;;;4960979;28;20058;-73
2022/05/29 08:09:58;;;;;;;0.50;0.50;;;12.20;99.90;;;;;;4977768;28;20047;-73
2022/05/29 08:12:25;;;;;;;0.40;0.40;;;12.40;99.90;;;;;;4961286;28;20049;-74
2022/05/29 08:14:50;;;;;;;0.30;0.30;;;12.60;99.90;;;;;;4945084;28;20490;-72
2022/05/29 08:17:16;;;;;;;0.40;0.40;;;12.80;99.90;;;;;;4978131;28;20058;-74
2022/05/29 08:19:42;;;;;;;0.40;0.40;;;13.10;99.90;;;;;;4960777;28;20472;-73
2022/05/29 08:22:07;;;;;;;0.40;0.40;;;13.20;99.90;;;;;;4961180;28;20062;-74
2022/05/29 08:33:01;;;;;;;0.40;0.40;;;12.50;99.90;;;;;;4977642;28;20388;-72
2022/05/29 08:35:27;;;;;;;0.60;0.60;;;12.30;99.90;;;;;;4977557;28;20049;-73
2022/05/29 08:37:54;;;;;;;0.40;0.40;;;12.50;99.90;;;;;;4944569;28;20043;-74
2022/05/29 08:40:20;;;;;;;0.40;0.40;;;12.60;99.90;;;;;;4977479;28;20462;-73
2022/05/29 08:42:46;;;;;;;1.95;0.50;;;12.60;99.90;;;;;;4960958;28;20055;-72
2022/05/29 08:45:14;;;;;;;0.40;0.40;;;12.60;99.90;;;;;;4977041;28;20047;-74
2022/05/29 08:47:41;;;;;;;0.50;0.50;;;12.60;99.90;;;;;;4960552;28;20399;-72
2022/05/29 08:50:22;;;;;;;0.40;0.40;;;12.60;99.90;;;;;;4977787;28;20065;-74
2022/05/29 08:53:02;;;;;;;0.30;0.30;;;12.40;99.90;;;;;;4977221;28;20038;-73
2022/05/29 08:55:52;;;;;;;0.98;0.85;;;12.40;99.90;;;;;;4976346;28;20047;-74
2022/05/29 08:58:36;;;;;;;0.40;0.40;;;12.30;99.90;;;;;;4977230;28;20080;-73
2022/05/29 09:01:25;;;;;;;0.40;0.40;;;12.30;99.90;;;;;;4960135;28;20046;-72
2022/05/29 09:04:01;;;;;;;2.55;2.05;;;12.30;99.90;;;;;;4946328;28;20098;-73
2022/05/29 09:06:47;;;;;;;0.40;0.40;;;12.40;99.90;;;;;;4977511;28;20042;-73
2022/05/29 09:09:25;;;;;;;0.40;0.40;;;12.50;99.90;;;;;;4960167;28;20467;-74
2022/05/29 09:11:55;;;;;;;0.50;0.50;;;12.60;99.90;;;;;;4977025;28;20130;-73
2022/05/29 09:14:39;;;;;;;0.60;0.60;;;12.50;99.90;;;;;;4976938;28;20133;-73
2022/05/29 09:17:14;;;;;;;0.57;0.57;;;12.30;99.90;;;;;;4977069;28;20039;-74
2022/05/29 09:20:01;;;;;;;0.30;0.30;;;12.30;99.90;;;;;;4976874;28;20043;-73
2022/05/29 09:22:31;;;;;;;0.40;0.40;;;12.30;99.90;;;;;;4959918;28;20047;-74
2022/05/29 09:25:04;;;;;;;0.40;0.40;;;12.40;99.90;;;;;;4976611;28;20046;-74
2022/05/29 09:27:31;;;;;;;0.30;0.30;;;12.30;99.90;;;;;;4977212;28;20054;-74
2022/05/29 09:29:57;;;;;;;0.45;0.45;;;12.30;99.90;;;;;;4959722;28;20126;-73
2022/05/29 09:32:27;;;;;;;0.55;0.55;;;12.40;99.90;;;;;;4976519;28;20126;-73
2022/05/29 09:35:20;;;;;;;0.30;0.30;;;12.60;99.90;;;;;;4943543;28;20061;-73
2022/05/29 09:38:24;;;;;;;0.30;0.30;;;12.80;99.90;;;;;;4976582;28;20039;-74
2022/05/29 09:41:02;;;;;;;0.40;0.40;;;12.90;99.90;;;;;;4976215;28;20487;-74
2022/05/29 09:43:29;;;;;;;0.50;0.50;;;13.00;99.90;;;;;;4976341;28;20114;-73
2022/05/29 09:45:55;;;;;;;0.73;0.73;;;13.10;99.90;;;;;;4956391;28;20161;-73
2022/05/29 09:51:25;;;;;;;0.30;0.30;;;12.90;99.90;;;;;;4976468;28;20051;-74
2022/05/29 09:53:56;;;;;;;0.30;0.30;;;12.80;99.90;;;;;;4976199;28;20074;-73
2022/05/29 09:56:31;;;;;;;0.47;0.40;;;12.80;99.90;;;;;;4959283;28;20058;-74
2022/05/29 09:59:19;;;;;;;9.80;0.70;;;12.80;99.90;;;;;;4975773;28;20077;-73
2022/05/29 10:01:45;;;;;;;0.40;0.40;;;12.80;99.90;;;;;;4958987;28;20086;-73
2022/05/29 10:04:39;;;;;;;0.30;0.30;;;12.90;99.90;;;;;;4959435;28;20070;-74
2022/05/29 10:07:32;;;;;;;1.58;0.68;;;12.70;99.90;;;;;;4959564;28;20057;-73
2022/05/29 10:10:06;;;;;;;0.50;0.50;;;12.80;99.90;;;;;;4959210;28;20043;-73
2022/05/29 10:12:42;;;;;;;0.40;0.40;;;12.90;99.90;;;;;;4975122;28;20046;-73
2022/05/29 10:15:38;;;;;;;0.40;0.40;;;13.00;99.90;;;;;;4975771;28;20163;-75
2022/05/29 10:18:30;;;;;;;0.43;0.43;;;13.20;99.90;;;;;;4956308;28;20125;-73
2022/05/29 10:21:17;;;;;;;0.50;0.50;;;13.30;99.90;;;;;;4975441;28;20050;-73
2022/05/29 10:23:52;;;;;;;0.50;0.50;;;13.50;99.90;;;;;;4976305;28;20054;-74
2022/05/29 10:26:36;;;;;;;0.50;0.50;;;13.60;99.90;;;;;;4958744;28;20054;-74
2022/05/29 10:29:17;;;;;;;0.40;0.40;;;13.60;99.90;;;;;;4975831;28;20058;-72
2022/05/29 10:31:47;;;;;;;0.40;0.40;;;13.70;99.90;;;;;;4975378;28;20053;-74
2022/05/29 10:34:21;;;;;;;0.50;0.50;;;13.60;99.90;;;;;;4959028;28;20431;-74
2022/05/29 10:36:47;;;;;;;0.32;0.32;;;13.50;99.90;;;;;;4975633;28;20046;-74
2022/05/29 10:39:22;;;;;;;0.50;0.50;;;13.40;99.90;;;;;;4975781;28;20371;-73
2022/05/29 10:41:48;;;;;;;0.50;0.50;;;13.30;99.90;;;;;;4975543;28;20059;-73
2022/05/29 10:44:35;;;;;;;0.30;0.30;;;13.20;99.90;;;;;;4958684;28;20384;-73
2022/05/29 10:47:16;;;;;;;0.93;0.73;;;13.20;99.90;;;;;;4943134;28;20043;-75
2022/05/29 10:50:03;;;;;;;1.33;0.65;;;13.20;99.90;;;;;;4975934;28;20054;-73
2022/05/29 10:52:56;;;;;;;0.60;0.60;;;13.20;99.90;;;;;;4975318;28;20055;-74
2022/05/29 10:55:40;;;;;;;0.40;0.40;;;13.30;99.90;;;;;;4976056;28;20046;-74
2022/05/29 10:58:27;;;;;;;0.30;0.30;;;13.20;99.90;;;;;;4959280;28;20061;-73
2022/05/29 11:03:17;;;;;;;0.30;0.30;;;13.20;99.90;;;;;;4958186;28;20051;-73
2022/05/29 11:04:32;;;;;;;0.30;0.30;;;13.40;99.90;;;;;;4958411;28;20054;-74
2022/05/29 11:07:27;;;;;;;0.47;0.47;;;13.70;99.90;;;;;;4974790;28;20051;-74
2022/05/29 11:10:11;;;;;;;0.30;0.30;;;14.00;99.90;;;;;;4975426;28;20404;-74
2022/05/29 11:12:41;;;;;;;;;;;14.00;99.90;;;;;;4975673;28;20257;-73
2022/05/29 11:15:37;;;;;;;0.50;0.50;;;14.00;99.90;;;;;;4958857;28;20024;-73
2022/05/29 11:18:34;;;;;;;0.57;0.57;;;13.70;99.90;;;;;;4948465;28;20058;-73
2022/05/29 11:21:16;;;;;;;1.58;1.13;;;13.20;99.90;;;;;;4958441;28;20050;-73
2022/05/29 11:24:02;;;;;;;0.30;0.30;;;13.00;99.90;;;;;;4976733;28;20051;-73
2022/05/29 11:27:06;;;;;;;0.57;0.57;;;12.80;99.90;;;;;;4978276;28;20086;-72
2022/05/29 11:30:00;;;;;;;2.65;0.73;;;12.60;99.90;;;;;;4978989;28;20066;-74
2022/05/29 11:33:04;;;;;;;1.45;1.35;;;12.70;99.90;;;;;;4978881;28;20141;-74
2022/05/29 11:35:53;;;;;;;0.70;0.60;;;12.80;99.90;;;;;;4978179;28;20053;-74
2022/05/29 11:38:59;;;;;;;0.30;0.30;;;12.80;99.90;;;;;;4961467;28;20051;-74
2022/05/29 11:41:38;;;;;;;0.40;0.40;;;13.00;99.90;;;;;;4978677;28;20047;-73
2022/05/29 11:44:20;;;;;;;0.45;0.45;;;13.20;99.90;;;;;;4978554;28;20443;-75
2022/05/29 11:53:04;;;;;;;0.30;0.30;;;13.80;99.90;;;;;;4977768;28;20095;-74
2022/05/29 11:55:42;;;;;;;1.65;0.40;;;14.30;99.90;;;;;;4978871;28;20046;-73
2022/05/29 11:58:19;;;;;;;0.40;0.40;;;14.60;99.90;;;;;;4978594;28;20387;-74
2022/05/29 12:01:02;;;;;;;0.30;0.30;;;14.70;99.90;;;;;;4978148;28;20551;-74
2022/05/29 12:03:44;;;;;;;0.40;0.40;;;14.40;99.90;;;;;;4961415;28;20060;-73
2022/05/29 12:06:21;;;;;;;0.73;0.73;;;14.60;99.90;;;;;;4962116;28;20058;-71
2022/05/29 12:09:02;;;;;;;3.83;2.67;;;14.60;99.90;;;;;;4978151;28;20113;-71
2022/05/29 12:11:35;;;;;;;0.40;0.40;;;14.60;99.90;;;;;;4977985;28;20047;-72
2022/05/29 12:14:22;;;;;;;0.35;0.35;;;14.60;99.90;;;;;;4960472;28;20046;-72
2022/05/29 12:16:55;;;;;;;0.40;0.40;;;14.40;99.90;;;;;;4977979;28;20038;-72
2022/05/29 12:19:31;;;;;;;0.40;0.40;;;14.30;99.90;;;;;;4978084;28;20043;-71
2022/05/29 12:22:04;;;;;;;0.30;0.30;;;14.20;99.90;;;;;;4977841;28;20274;-74
2022/05/29 12:24:34;;;;;;;6.03;1.95;;;14.00;99.90;;;;;;4958497;28;20086;-73
2022/05/29 12:27:09;;;;;;;0.82;0.82;;;13.90;99.90;;;;;;4977934;28;20055;-72
2022/05/29 12:29:49;;;;;;;0.30;0.30;;;13.80;99.90;;;;;;4978505;28;20109;-72
2022/05/29 12:32:27;;;;;;;5.57;1.30;;;13.60;99.90;;;;;;4960883;28;20054;-71
2022/05/29 12:35:13;;;;;;;0.50;0.50;;;13.50;99.90;;;;;;4976467;28;20039;-72
2022/05/29 12:38:04;;;;;;;0.30;0.30;;;13.40;99.90;;;;;;4961120;28;20055;-71
2022/05/29 12:41:04;;;;;;;0.43;0.43;;;13.10;99.90;;;;;;4960606;28;20101;-72
2022/05/29 12:44:03;;;;;;;0.35;0.35;;;13.10;99.90;;;;;;4960495;28;20057;-73
2022/05/29 12:47:04;;;;;;;0.52;0.52;;;12.90;99.90;;;;;;4977467;28;20046;-72
2022/05/29 12:49:42;;;;;;;0.50;0.50;;;12.70;99.90;;;;;;4976212;28;20059;-73
2022/05/29 12:52:17;;;;;;;0.40;0.40;;;12.60;99.90;;;;;;4960838;28;20069;-76
2022/05/29 12:55:03;;;;;;;0.50;0.50;;;12.60;99.90;;;;;;4977155;28;20051;-71
2022/05/29 12:57:49;;;;;;;0.40;0.40;;;12.70;99.90;;;;;;4977524;28;20136;-73
2022/05/29 13:00:38;;;;;;;0.40;0.40;;;13.00;99.90;;;;;;4976429;28;20055;-73
2022/05/29 13:03:47;;;;;;;0.40;0.40;;;13.10;99.90;;;;;;4977305;28;20050;-73
2022/05/29 13:06:18;;;;;;;0.40;0.40;;;13.40;99.90;;;;;;4977520;28;20448;-73
2022/05/29 13:08:51;;;;;;;0.32;0.32;;;13.60;99.90;;;;;;4977325;28;20190;-73
2022/05/29 13:11:27;;;;;;;0.30;0.30;;;13.60;99.90;;;;;;4977456;28;20368;-73
2022/05/29 13:13:59;;;;;;;1.25;1.15;;;13.80;99.90;;;;;;4976873;28;20126;-72
2022/05/29 13:16:34;;;;;;;0.52;0.52;;;14.10;99.90;;;;;;4976481;28;20190;-71
2022/05/29 13:19:47;;;;;;;0.30;0.30;;;14.60;99.90;;;;;;4959775;28;20054;-73
2022/05/29 13:22:13;;;;;;;0.30;0.30;;;14.80;99.90;;;;;;4967987;28;20069;-73
2022/05/29 13:24:43;;;;;;;0.40;0.40;;;14.90;99.90;;;;;;4976679;28;20038;-74
2022/05/29 13:27:17;;;;;;;0.30;0.30;;;14.90;99.90;;;;;;4976756;28;20066;-74
2022/05/29 13:29:51;;;;;;;0.30;0.30;;;14.60;99.90;;;;;;4976885;28;20098;-75
2022/05/29 13:32:23;;;;;;;2.30;1.13;;;14.50;99.90;;;;;;4976520;28;20090;-75
2022/05/29 13:34:51;;;;;;;0.75;0.60;;;14.40;99.90;;;;;;4959707;28;20069;-74
2022/05/29 13:37:31;;;;;;;0.57;0.50;;;14.40;99.90;;;;;;4976522;28;20061;-73
2022/05/29 13:40:10;;;;;;;0.95;0.63;;;14.20;99.90;;;;;;4959779;28;20054;-74
2022/05/29 13:42:45;;;;;;;0.30;0.30;;;14.10;99.90;;;;;;4976232;28;20142;-72
2022/05/29 13:45:23;;;;;;;0.43;0.43;;;14.10;99.90;;;;;;4959295;28;20047;-73
2022/05/29 13:48:24;;;;;;;0.50;0.50;;;14.00;99.90;;;;;;4959014;28;20460;-73
2022/05/29 13:51:03;;;;;;;0.45;0.45;;;14.00;99.90;;;;;;4976716;28;20034;-74
2022/05/29 13:53:36;;;;;;;1.00;0.65;;;14.00;99.90;;;;;;4976579;28;20086;-74
2022/05/29 13:56:18;;;;;;;0.40;0.40;;;14.00;99.90;;;;;;4943253;28;20046;-73
2022/05/29 14:04:55;;;;;;;0.45;0.45;;;14.10;99.90;;;;;;4975811;28;20058;-73
2022/05/29 14:07:25;;;;;;;0.40;0.40;;;14.00;99.90;;;;;;4975529;28;20085;-75
2022/05/29 14:10:06;;;;;;;0.40;0.40;;;13.90;99.90;;;;;;4975952;28;20130;-73